MLE0438 SBMO-SBSP
Flight info
| Callsign | MLE0438 |
|---|---|
| Flight time | 3h 13m |
| Altitude | 32000 |
| Route | ILPAP1B OBLAX DCT ARNOX UZ30 ENTIT ORESU1A |
| Aircraft | A319/M-VGDW/C |
Departure
| Time | 2026-04-20 19:49 |
|---|---|
| Airport | Zumbi dos Palmares International Airport (SBMO) |
Arrival
| Time | 2026-04-20 23:02 |
|---|---|
| Airport | Congonhas–Deputado Freitas Nobre Airport (SBSP) |
| Time | Latitude | Longitude | Altitude | Speed | Heading |
|---|---|---|---|---|---|
| 2026-04-20 19:33 | -9.51330 | -35.79234 | 387 ft | 0 kts | 190° |
| 2026-04-20 19:37 | -9.51338 | -35.79238 | 387 ft | 3 kts | 212° |
| 2026-04-20 19:37 | -9.51343 | -35.79261 | 387 ft | 4 kts | 277° |
| 2026-04-20 19:37 | -9.51326 | -35.79294 | 387 ft | 6 kts | 299° |
| 2026-04-20 19:38 | -9.51311 | -35.79328 | 388 ft | 5 kts | 285° |
| 2026-04-20 19:38 | -9.51304 | -35.79361 | 388 ft | 5 kts | 283° |
| 2026-04-20 19:38 | -9.51295 | -35.79391 | 388 ft | 4 kts | 292° |
| 2026-04-20 19:38 | -9.51278 | -35.79413 | 388 ft | 4 kts | 326° |
| 2026-04-20 19:39 | -9.51254 | -35.79422 | 389 ft | 4 kts | 346° |
| 2026-04-20 19:39 | -9.51228 | -35.79429 | 389 ft | 4 kts | 346° |
| 2026-04-20 19:39 | -9.51203 | -35.79443 | 389 ft | 4 kts | 321° |
| 2026-04-20 19:39 | -9.51189 | -35.79468 | 389 ft | 4 kts | 288° |
| 2026-04-20 19:40 | -9.51182 | -35.79493 | 389 ft | 4 kts | 283° |
| 2026-04-20 19:40 | -9.51177 | -35.79516 | 389 ft | 3 kts | 283° |
| 2026-04-20 19:40 | -9.51173 | -35.79535 | 390 ft | 3 kts | 283° |
| 2026-04-20 19:40 | -9.51169 | -35.79552 | 390 ft | 2 kts | 282° |
| 2026-04-20 19:41 | -9.51166 | -35.79567 | 390 ft | 2 kts | 282° |
| 2026-04-20 19:41 | -9.51164 | -35.79578 | 390 ft | 2 kts | 281° |
| 2026-04-20 19:41 | -9.51161 | -35.79596 | 390 ft | 3 kts | 279° |
| 2026-04-20 19:41 | -9.51156 | -35.79622 | 391 ft | 4 kts | 279° |
| 2026-04-20 19:42 | -9.51151 | -35.79657 | 391 ft | 6 kts | 279° |
| 2026-04-20 19:42 | -9.51144 | -35.79700 | 392 ft | 7 kts | 279° |
| 2026-04-20 19:42 | -9.51136 | -35.79751 | 392 ft | 8 kts | 279° |
| 2026-04-20 19:42 | -9.51134 | -35.79765 | 392 ft | 8 kts | 278° |
| 2026-04-20 19:43 | -9.51126 | -35.79813 | 393 ft | 9 kts | 282° |
| 2026-04-20 19:43 | -9.51112 | -35.79881 | 393 ft | 11 kts | 282° |
| 2026-04-20 19:44 | -9.51098 | -35.79959 | 394 ft | 12 kts | 281° |
| 2026-04-20 19:44 | -9.51081 | -35.80045 | 395 ft | 13 kts | 281° |
| 2026-04-20 19:44 | -9.51064 | -35.80138 | 396 ft | 14 kts | 281° |
| 2026-04-20 19:44 | -9.51043 | -35.80240 | 395 ft | 15 kts | 280° |
| 2026-04-20 19:45 | -9.51014 | -35.80333 | 398 ft | 13 kts | 317° |
| 2026-04-20 19:45 | -9.50975 | -35.80339 | 398 ft | 0 kts | 8° |
| 2026-04-20 19:45 | -9.50971 | -35.80338 | 398 ft | 1 kts | 8° |
| 2026-04-20 19:45 | -9.50963 | -35.80337 | 398 ft | 1 kts | 8° |
| 2026-04-20 19:46 | -9.50955 | -35.80336 | 398 ft | 2 kts | 7° |
| 2026-04-20 19:46 | -9.50952 | -35.80335 | 394 ft | 2 kts | 8° |
| 2026-04-20 19:47 | -9.50936 | -35.80333 | 397 ft | 2 kts | 7° |
| 2026-04-20 19:47 | -9.50916 | -35.80330 | 398 ft | 3 kts | 8° |
| 2026-04-20 19:48 | -9.50900 | -35.80322 | 398 ft | 2 kts | 63° |
| 2026-04-20 19:48 | -9.50890 | -35.80301 | 397 ft | 5 kts | 64° |
| 2026-04-20 19:48 | -9.50876 | -35.80249 | 398 ft | 10 kts | 91° |
| 2026-04-20 19:48 | -9.50894 | -35.80152 | 398 ft | 31 kts | 101° |
| 2026-04-20 19:49 | -9.50987 | -35.79651 | 393 ft | 115 kts | 100° |
| 2026-04-20 19:49 | -9.51178 | -35.78609 | 383 ft | 183 kts | 100° |
| 2026-04-20 19:49 | -9.51423 | -35.77329 | 1140 ft | 178 kts | 102° |
| 2026-04-20 19:49 | -9.51680 | -35.76143 | 2114 ft | 166 kts | 103° |
| 2026-04-20 19:50 | -9.52008 | -35.75099 | 3007 ft | 143 kts | 120° |
| 2026-04-20 19:50 | -9.52767 | -35.74613 | 3522 ft | 142 kts | 173° |
| 2026-04-20 19:50 | -9.53995 | -35.74777 | 2949 ft | 220 kts | 187° |
| 2026-04-20 19:50 | -9.55477 | -35.75607 | 2507 ft | 260 kts | 229° |
| 2026-04-20 19:51 | -9.56200 | -35.77269 | 3395 ft | 257 kts | 254° |
| 2026-04-20 19:51 | -9.56514 | -35.79042 | 4307 ft | 263 kts | 261° |
| 2026-04-20 19:51 | -9.56742 | -35.80932 | 4952 ft | 278 kts | 262° |
| 2026-04-20 19:51 | -9.56990 | -35.82914 | 5562 ft | 282 kts | 260° |
| 2026-04-20 19:52 | -9.57281 | -35.84870 | 6162 ft | 285 kts | 258° |
| 2026-04-20 19:52 | -9.57626 | -35.86850 | 6755 ft | 287 kts | 257° |
| 2026-04-20 19:52 | -9.58008 | -35.88836 | 7347 ft | 289 kts | 257° |
| 2026-04-20 19:52 | -9.58423 | -35.90869 | 7965 ft | 291 kts | 256° |
| 2026-04-20 19:53 | -9.58839 | -35.92854 | 8557 ft | 293 kts | 256° |
| 2026-04-20 19:53 | -9.59270 | -35.94889 | 9181 ft | 296 kts | 256° |
| 2026-04-20 19:53 | -9.59711 | -35.96961 | 9830 ft | 299 kts | 256° |
| 2026-04-20 19:53 | -9.60147 | -35.99020 | 10405 ft | 307 kts | 256° |
| 2026-04-20 19:54 | -9.60608 | -36.01201 | 11008 ft | 317 kts | 256° |
| 2026-04-20 19:54 | -9.61075 | -36.03417 | 11607 ft | 326 kts | 257° |
| 2026-04-20 19:54 | -9.61554 | -36.05697 | 12221 ft | 334 kts | 256° |
| 2026-04-20 19:54 | -9.62035 | -36.07992 | 12840 ft | 341 kts | 256° |
| 2026-04-20 19:55 | -9.62537 | -36.10392 | 13480 ft | 347 kts | 257° |
| 2026-04-20 19:55 | -9.63041 | -36.12804 | 14075 ft | 353 kts | 257° |
| 2026-04-20 19:55 | -9.63542 | -36.15225 | 14637 ft | 358 kts | 257° |
| 2026-04-20 19:55 | -9.64094 | -36.17731 | 15230 ft | 361 kts | 253° |
| 2026-04-20 19:56 | -9.65014 | -36.20117 | 15825 ft | 366 kts | 243° |
| 2026-04-20 19:56 | -9.66160 | -36.22430 | 16408 ft | 369 kts | 243° |
| 2026-04-20 19:56 | -9.67307 | -36.24763 | 17023 ft | 371 kts | 244° |
| 2026-04-20 19:56 | -9.68438 | -36.27079 | 17645 ft | 373 kts | 244° |
| 2026-04-20 19:57 | -9.69586 | -36.29446 | 18279 ft | 374 kts | 244° |
| 2026-04-20 19:57 | -9.70745 | -36.31845 | 18840 ft | 375 kts | 244° |
| 2026-04-20 19:57 | -9.71888 | -36.34212 | 19401 ft | 375 kts | 245° |
| 2026-04-20 19:57 | -9.73039 | -36.36596 | 19976 ft | 376 kts | 245° |
| 2026-04-20 19:58 | -9.74191 | -36.38973 | 20563 ft | 376 kts | 245° |
| 2026-04-20 19:58 | -9.75327 | -36.41320 | 21146 ft | 375 kts | 245° |
| 2026-04-20 19:58 | -9.76472 | -36.43686 | 21757 ft | 374 kts | 245° |
| 2026-04-20 19:58 | -9.77616 | -36.46049 | 22377 ft | 373 kts | 245° |
| 2026-04-20 19:59 | -9.78756 | -36.48401 | 23004 ft | 371 kts | 245° |
| 2026-04-20 19:59 | -9.79891 | -36.50738 | 23624 ft | 369 kts | 245° |
| 2026-04-20 19:59 | -9.81022 | -36.53064 | 24171 ft | 366 kts | 245° |
| 2026-04-20 19:59 | -9.82145 | -36.55377 | 24729 ft | 364 kts | 245° |
| 2026-04-20 20:00 | -9.83252 | -36.57665 | 25280 ft | 361 kts | 245° |
| 2026-04-20 20:00 | -9.84352 | -36.59939 | 25850 ft | 357 kts | 245° |
| 2026-04-20 20:00 | -9.85439 | -36.62192 | 26435 ft | 353 kts | 245° |
| 2026-04-20 20:00 | -9.86514 | -36.64417 | 27029 ft | 349 kts | 245° |
| 2026-04-20 20:01 | -9.87573 | -36.66607 | 27635 ft | 344 kts | 245° |
| 2026-04-20 20:01 | -9.88630 | -36.68799 | 28253 ft | 339 kts | 245° |
| 2026-04-20 20:01 | -9.89656 | -36.70925 | 28901 ft | 333 kts | 245° |
| 2026-04-20 20:01 | -9.90710 | -36.72952 | 29544 ft | 326 kts | 240° |
| 2026-04-20 20:02 | -9.92016 | -36.74884 | 29935 ft | 330 kts | 233° |
| 2026-04-20 20:02 | -9.93535 | -36.76607 | 30224 ft | 334 kts | 226° |
| 2026-04-20 20:02 | -9.95276 | -36.78171 | 30521 ft | 336 kts | 223° |
| 2026-04-20 20:02 | -9.97084 | -36.79737 | 30834 ft | 338 kts | 223° |
| 2026-04-20 20:03 | -9.98839 | -36.81276 | 31138 ft | 339 kts | 223° |
| 2026-04-20 20:03 | -10.00620 | -36.82844 | 31458 ft | 340 kts | 224° |
| 2026-04-20 20:03 | -10.02401 | -36.84414 | 31813 ft | 340 kts | 224° |
| 2026-04-20 20:04 | -10.06066 | -36.87644 | 31940 ft | 360 kts | 223° |
| 2026-04-20 20:04 | -10.07987 | -36.89333 | 31934 ft | 372 kts | 223° |
| 2026-04-20 20:04 | -10.09982 | -36.91084 | 31932 ft | 384 kts | 223° |
| 2026-04-20 20:04 | -10.12060 | -36.92902 | 31932 ft | 396 kts | 223° |
| 2026-04-20 20:05 | -10.14147 | -36.94732 | 31929 ft | 406 kts | 223° |
| 2026-04-20 20:05 | -10.16310 | -36.96631 | 31932 ft | 417 kts | 223° |
| 2026-04-20 20:05 | -10.18523 | -36.98576 | 31931 ft | 424 kts | 223° |
| 2026-04-20 20:06 | -10.23013 | -37.02522 | 31929 ft | 429 kts | 223° |
| 2026-04-20 20:06 | -10.27525 | -37.06488 | 31931 ft | 429 kts | 223° |
| 2026-04-20 20:07 | -10.32061 | -37.10465 | 31931 ft | 428 kts | 223° |
| 2026-04-20 20:07 | -10.36540 | -37.14398 | 31930 ft | 428 kts | 223° |
| 2026-04-20 20:08 | -10.41064 | -37.18384 | 31924 ft | 428 kts | 223° |
| 2026-04-20 20:08 | -10.45564 | -37.22346 | 31923 ft | 428 kts | 223° |
| 2026-04-20 20:09 | -10.50060 | -37.26303 | 31919 ft | 428 kts | 223° |
| 2026-04-20 20:09 | -10.54565 | -37.30274 | 31927 ft | 428 kts | 223° |
| 2026-04-20 20:10 | -10.59061 | -37.34236 | 31930 ft | 428 kts | 224° |
| 2026-04-20 20:10 | -10.63550 | -37.38199 | 31927 ft | 427 kts | 224° |
| 2026-04-20 20:11 | -10.68033 | -37.42158 | 31927 ft | 427 kts | 224° |
| 2026-04-20 20:11 | -10.72523 | -37.46118 | 31927 ft | 427 kts | 223° |
| 2026-04-20 20:12 | -10.76974 | -37.50042 | 31920 ft | 427 kts | 223° |
| 2026-04-20 20:12 | -10.81471 | -37.54006 | 31935 ft | 427 kts | 223° |
| 2026-04-20 20:13 | -10.88191 | -37.59941 | 31934 ft | 426 kts | 223° |
| 2026-04-20 20:13 | -10.92661 | -37.63897 | 31933 ft | 426 kts | 223° |
| 2026-04-20 20:14 | -10.97140 | -37.67862 | 31932 ft | 426 kts | 223° |
| 2026-04-20 20:14 | -11.01613 | -37.71819 | 31938 ft | 426 kts | 223° |
| 2026-04-20 20:15 | -11.06109 | -37.75802 | 31946 ft | 425 kts | 224° |
| 2026-04-20 20:15 | -11.10574 | -37.79750 | 31945 ft | 425 kts | 224° |
| 2026-04-20 20:16 | -11.15036 | -37.83696 | 31931 ft | 425 kts | 224° |
| 2026-04-20 20:16 | -11.19490 | -37.87647 | 31935 ft | 424 kts | 224° |
| 2026-04-20 20:17 | -11.23949 | -37.91599 | 31937 ft | 424 kts | 224° |
| 2026-04-20 20:17 | -11.28397 | -37.95543 | 31938 ft | 424 kts | 224° |
| 2026-04-20 20:18 | -11.32852 | -37.99499 | 31945 ft | 424 kts | 224° |
| 2026-04-20 20:18 | -11.37297 | -38.03451 | 31947 ft | 424 kts | 224° |
| 2026-04-20 20:19 | -11.41735 | -38.07393 | 31944 ft | 423 kts | 224° |
| 2026-04-20 20:19 | -11.46151 | -38.11311 | 31941 ft | 423 kts | 224° |
| 2026-04-20 20:20 | -11.50616 | -38.15277 | 31939 ft | 423 kts | 224° |
| 2026-04-20 20:20 | -11.55021 | -38.19196 | 31946 ft | 423 kts | 224° |
| 2026-04-20 20:21 | -11.59452 | -38.23140 | 31949 ft | 423 kts | 224° |
| 2026-04-20 20:21 | -11.63872 | -38.27077 | 31947 ft | 422 kts | 224° |
| 2026-04-20 20:22 | -11.68328 | -38.31046 | 31946 ft | 422 kts | 224° |
| 2026-04-20 20:22 | -11.72747 | -38.34975 | 31944 ft | 422 kts | 224° |
| 2026-04-20 20:23 | -11.76421 | -38.38244 | 31947 ft | 422 kts | 224° |
| 2026-04-20 20:23 | -11.80836 | -38.42182 | 31961 ft | 421 kts | 225° |
| 2026-04-20 20:24 | -11.85252 | -38.46131 | 31962 ft | 421 kts | 225° |
| 2026-04-20 20:24 | -11.89650 | -38.50059 | 31965 ft | 420 kts | 225° |
| 2026-04-20 20:25 | -11.94060 | -38.53984 | 31961 ft | 420 kts | 225° |
| 2026-04-20 20:25 | -11.98461 | -38.57908 | 31958 ft | 420 kts | 225° |
| 2026-04-20 20:26 | -12.02845 | -38.61833 | 31957 ft | 419 kts | 225° |
| 2026-04-20 20:26 | -12.07241 | -38.65770 | 31951 ft | 419 kts | 225° |
| 2026-04-20 20:27 | -12.11629 | -38.69692 | 31948 ft | 419 kts | 224° |
| 2026-04-20 20:27 | -12.16016 | -38.73614 | 31948 ft | 419 kts | 225° |
| 2026-04-20 20:28 | -12.20401 | -38.77531 | 31951 ft | 419 kts | 224° |
| 2026-04-20 20:28 | -12.24751 | -38.81426 | 31946 ft | 419 kts | 225° |
| 2026-04-20 20:29 | -12.29162 | -38.85380 | 31950 ft | 419 kts | 225° |
| 2026-04-20 20:29 | -12.33538 | -38.89301 | 31967 ft | 418 kts | 225° |
| 2026-04-20 20:30 | -12.37905 | -38.93219 | 31963 ft | 418 kts | 225° |
| 2026-04-20 20:30 | -12.42245 | -38.97111 | 31960 ft | 417 kts | 225° |
| 2026-04-20 20:31 | -12.46628 | -39.01052 | 31954 ft | 417 kts | 225° |
| 2026-04-20 20:31 | -12.50985 | -39.04972 | 31943 ft | 417 kts | 225° |
| 2026-04-20 20:32 | -12.55343 | -39.08884 | 31964 ft | 416 kts | 225° |
| 2026-04-20 20:32 | -12.59692 | -39.12794 | 31957 ft | 416 kts | 225° |
| 2026-04-20 20:33 | -12.64042 | -39.16700 | 31957 ft | 416 kts | 225° |
| 2026-04-20 20:33 | -12.68383 | -39.20605 | 31954 ft | 415 kts | 225° |
| 2026-04-20 20:34 | -12.72715 | -39.24510 | 31954 ft | 415 kts | 225° |
| 2026-04-20 20:34 | -12.77053 | -39.28416 | 31950 ft | 415 kts | 225° |
| 2026-04-20 20:35 | -12.81362 | -39.32294 | 31962 ft | 415 kts | 225° |
| 2026-04-20 20:35 | -12.85692 | -39.36196 | 31959 ft | 414 kts | 225° |
| 2026-04-20 20:36 | -12.90036 | -39.40122 | 31968 ft | 414 kts | 225° |
| 2026-04-20 20:36 | -12.94360 | -39.44018 | 31966 ft | 413 kts | 225° |
| 2026-04-20 20:37 | -12.98641 | -39.47888 | 31963 ft | 413 kts | 225° |
| 2026-04-20 20:37 | -13.02979 | -39.51805 | 31966 ft | 413 kts | 225° |
| 2026-04-20 20:38 | -13.07258 | -39.55669 | 31979 ft | 412 kts | 225° |
| 2026-04-20 20:38 | -13.11564 | -39.59564 | 31977 ft | 412 kts | 225° |
| 2026-04-20 20:39 | -13.15889 | -39.63472 | 31977 ft | 412 kts | 225° |
| 2026-04-20 20:39 | -13.20187 | -39.67362 | 31980 ft | 411 kts | 225° |
| 2026-04-20 20:40 | -13.24475 | -39.71242 | 31978 ft | 411 kts | 225° |
| 2026-04-20 20:40 | -13.28738 | -39.75098 | 31999 ft | 411 kts | 224° |
| 2026-04-20 20:41 | -13.33252 | -39.78796 | 31994 ft | 413 kts | 221° |
| 2026-04-20 20:41 | -13.37865 | -39.82313 | 31986 ft | 413 kts | 220° |
| 2026-04-20 20:42 | -13.42434 | -39.85821 | 31989 ft | 412 kts | 220° |
| 2026-04-20 20:42 | -13.47021 | -39.89421 | 31987 ft | 412 kts | 221° |
| 2026-04-20 20:43 | -13.51553 | -39.93011 | 31997 ft | 412 kts | 221° |
| 2026-04-20 20:43 | -13.56063 | -39.96579 | 31987 ft | 411 kts | 221° |
| 2026-04-20 20:44 | -13.60600 | -40.00153 | 31982 ft | 411 kts | 221° |
| 2026-04-20 20:44 | -13.65130 | -40.03735 | 31983 ft | 411 kts | 221° |
| 2026-04-20 20:45 | -13.69676 | -40.07344 | 31978 ft | 410 kts | 221° |
| 2026-04-20 20:45 | -13.74166 | -40.10906 | 31972 ft | 410 kts | 221° |
| 2026-04-20 20:46 | -13.78668 | -40.14495 | 31984 ft | 410 kts | 221° |
| 2026-04-20 20:46 | -13.83178 | -40.18086 | 31980 ft | 410 kts | 221° |
| 2026-04-20 20:47 | -13.87692 | -40.21669 | 31978 ft | 410 kts | 221° |
| 2026-04-20 20:47 | -13.92209 | -40.25253 | 31979 ft | 410 kts | 221° |
| 2026-04-20 20:48 | -13.96712 | -40.28836 | 31966 ft | 409 kts | 220° |
| 2026-04-20 20:48 | -14.01215 | -40.32425 | 31986 ft | 409 kts | 220° |
| 2026-04-20 20:49 | -14.05706 | -40.36008 | 31976 ft | 408 kts | 220° |
| 2026-04-20 20:49 | -14.10202 | -40.39586 | 31976 ft | 408 kts | 220° |
| 2026-04-20 20:50 | -14.14697 | -40.43157 | 31975 ft | 408 kts | 220° |
| 2026-04-20 20:50 | -14.19184 | -40.46736 | 31976 ft | 408 kts | 220° |
| 2026-04-20 20:51 | -14.23668 | -40.50318 | 31987 ft | 408 kts | 220° |
| 2026-04-20 20:51 | -14.28145 | -40.53898 | 31994 ft | 407 kts | 220° |
| 2026-04-20 20:52 | -14.32618 | -40.57477 | 31979 ft | 407 kts | 220° |
| 2026-04-20 20:52 | -14.37096 | -40.61048 | 31976 ft | 406 kts | 220° |
| 2026-04-20 20:53 | -14.41567 | -40.64616 | 31983 ft | 406 kts | 220° |
| 2026-04-20 20:53 | -14.46029 | -40.68188 | 31976 ft | 406 kts | 220° |
| 2026-04-20 20:54 | -14.50486 | -40.71761 | 31974 ft | 406 kts | 220° |
| 2026-04-20 20:54 | -14.54937 | -40.75335 | 31975 ft | 406 kts | 220° |
| 2026-04-20 20:55 | -14.59394 | -40.78909 | 31983 ft | 406 kts | 220° |
| 2026-04-20 20:55 | -14.63860 | -40.82486 | 31984 ft | 406 kts | 220° |
| 2026-04-20 20:56 | -14.68315 | -40.86063 | 31988 ft | 406 kts | 220° |
| 2026-04-20 20:56 | -14.72767 | -40.89642 | 31997 ft | 406 kts | 219° |
| 2026-04-20 20:57 | -14.77220 | -40.93217 | 31981 ft | 406 kts | 219° |
| 2026-04-20 20:57 | -14.81682 | -40.96793 | 31987 ft | 405 kts | 219° |
| 2026-04-20 20:58 | -14.86132 | -41.00364 | 31989 ft | 405 kts | 219° |
| 2026-04-20 20:58 | -14.90576 | -41.03945 | 31996 ft | 405 kts | 219° |
| 2026-04-20 20:59 | -14.95018 | -41.07520 | 32003 ft | 405 kts | 219° |
| 2026-04-20 20:59 | -14.99460 | -41.11097 | 31999 ft | 405 kts | 219° |
| 2026-04-20 21:00 | -15.03896 | -41.14681 | 31998 ft | 405 kts | 219° |
| 2026-04-20 21:00 | -15.08336 | -41.18265 | 31997 ft | 404 kts | 219° |
| 2026-04-20 21:01 | -15.12773 | -41.21846 | 31998 ft | 404 kts | 219° |
| 2026-04-20 21:01 | -15.17204 | -41.25426 | 32014 ft | 404 kts | 219° |
| 2026-04-20 21:02 | -15.21631 | -41.29006 | 32007 ft | 404 kts | 219° |
| 2026-04-20 21:02 | -15.26062 | -41.32583 | 32010 ft | 403 kts | 219° |
| 2026-04-20 21:03 | -15.30489 | -41.36150 | 31997 ft | 403 kts | 219° |
| 2026-04-20 21:03 | -15.34909 | -41.39720 | 32001 ft | 403 kts | 219° |
| 2026-04-20 21:04 | -15.39321 | -41.43290 | 32009 ft | 403 kts | 219° |
| 2026-04-20 21:04 | -15.43732 | -41.46872 | 32006 ft | 402 kts | 219° |
| 2026-04-20 21:05 | -15.48136 | -41.50443 | 32004 ft | 402 kts | 219° |
| 2026-04-20 21:05 | -15.51791 | -41.53410 | 32001 ft | 402 kts | 219° |
| 2026-04-20 21:06 | -15.56202 | -41.56985 | 31996 ft | 402 kts | 219° |
| 2026-04-20 21:06 | -15.60607 | -41.60555 | 32002 ft | 402 kts | 219° |
| 2026-04-20 21:07 | -15.65011 | -41.64137 | 32000 ft | 402 kts | 219° |
| 2026-04-20 21:07 | -15.69417 | -41.67718 | 32001 ft | 402 kts | 218° |
| 2026-04-20 21:08 | -15.73816 | -41.71288 | 31999 ft | 402 kts | 218° |
| 2026-04-20 21:08 | -15.78219 | -41.74868 | 32002 ft | 402 kts | 219° |
| 2026-04-20 21:09 | -15.82610 | -41.78451 | 32002 ft | 401 kts | 218° |
| 2026-04-20 21:09 | -15.86999 | -41.82025 | 31998 ft | 401 kts | 218° |
| 2026-04-20 21:10 | -15.91395 | -41.85599 | 31995 ft | 401 kts | 218° |
| 2026-04-20 21:10 | -15.95786 | -41.89177 | 31991 ft | 401 kts | 218° |
| 2026-04-20 21:11 | -16.00171 | -41.92758 | 31994 ft | 401 kts | 218° |
| 2026-04-20 21:11 | -16.04554 | -41.96339 | 31988 ft | 401 kts | 218° |
| 2026-04-20 21:12 | -16.08947 | -41.99924 | 31989 ft | 401 kts | 218° |
| 2026-04-20 21:12 | -16.13330 | -42.03508 | 31977 ft | 401 kts | 218° |
| 2026-04-20 21:13 | -16.17708 | -42.07085 | 31979 ft | 401 kts | 218° |
| 2026-04-20 21:13 | -16.22096 | -42.10675 | 31973 ft | 401 kts | 218° |
| 2026-04-20 21:14 | -16.26476 | -42.14256 | 31982 ft | 401 kts | 218° |
| 2026-04-20 21:14 | -16.30858 | -42.17853 | 31979 ft | 401 kts | 218° |
| 2026-04-20 21:15 | -16.35222 | -42.21431 | 31973 ft | 401 kts | 218° |
| 2026-04-20 21:15 | -16.39624 | -42.25032 | 31963 ft | 401 kts | 218° |
| 2026-04-20 21:16 | -16.44000 | -42.28617 | 31968 ft | 401 kts | 218° |
| 2026-04-20 21:16 | -16.48374 | -42.32214 | 31978 ft | 400 kts | 218° |
| 2026-04-20 21:17 | -16.52750 | -42.35814 | 31975 ft | 401 kts | 218° |
| 2026-04-20 21:17 | -16.57117 | -42.39412 | 31979 ft | 400 kts | 218° |
| 2026-04-20 21:18 | -16.61491 | -42.43016 | 31968 ft | 400 kts | 218° |
| 2026-04-20 21:18 | -16.65853 | -42.46609 | 31976 ft | 400 kts | 218° |
| 2026-04-20 21:19 | -16.70227 | -42.50208 | 31975 ft | 401 kts | 218° |
| 2026-04-20 21:20 | -16.76792 | -42.55621 | 31977 ft | 401 kts | 218° |
| 2026-04-20 21:20 | -16.81164 | -42.59225 | 31971 ft | 401 kts | 218° |
| 2026-04-20 21:21 | -16.85540 | -42.62835 | 31968 ft | 401 kts | 218° |
| 2026-04-20 21:21 | -16.89916 | -42.66448 | 31973 ft | 401 kts | 218° |
| 2026-04-20 21:22 | -16.94288 | -42.70072 | 31984 ft | 401 kts | 218° |
| 2026-04-20 21:22 | -16.98660 | -42.73696 | 31981 ft | 401 kts | 218° |
| 2026-04-20 21:23 | -17.03035 | -42.77308 | 31987 ft | 401 kts | 218° |
| 2026-04-20 21:23 | -17.07409 | -42.80923 | 31986 ft | 401 kts | 218° |
| 2026-04-20 21:24 | -17.11776 | -42.84536 | 31985 ft | 401 kts | 217° |
| 2026-04-20 21:24 | -17.16147 | -42.88162 | 31990 ft | 401 kts | 217° |
| 2026-04-20 21:25 | -17.20521 | -42.91799 | 31988 ft | 401 kts | 217° |
| 2026-04-20 21:25 | -17.24893 | -42.95419 | 31990 ft | 401 kts | 217° |
| 2026-04-20 21:26 | -17.29273 | -42.99050 | 31988 ft | 401 kts | 217° |
| 2026-04-20 21:26 | -17.33639 | -43.02684 | 32001 ft | 401 kts | 217° |
| 2026-04-20 21:27 | -17.37999 | -43.06316 | 31987 ft | 401 kts | 217° |
| 2026-04-20 21:27 | -17.42373 | -43.09951 | 31985 ft | 401 kts | 217° |
| 2026-04-20 21:28 | -17.46744 | -43.13578 | 31985 ft | 401 kts | 217° |
| 2026-04-20 21:28 | -17.51108 | -43.17218 | 31989 ft | 401 kts | 217° |
| 2026-04-20 21:29 | -17.55475 | -43.20866 | 31991 ft | 401 kts | 217° |
| 2026-04-20 21:29 | -17.59842 | -43.24510 | 31993 ft | 401 kts | 217° |
| 2026-04-20 21:30 | -17.64204 | -43.28154 | 31989 ft | 401 kts | 217° |
| 2026-04-20 21:30 | -17.68569 | -43.31795 | 31995 ft | 401 kts | 217° |
| 2026-04-20 21:31 | -17.72936 | -43.35441 | 31992 ft | 401 kts | 217° |
| 2026-04-20 21:31 | -17.77299 | -43.39087 | 31995 ft | 401 kts | 217° |
| 2026-04-20 21:32 | -17.81650 | -43.42734 | 31993 ft | 401 kts | 217° |
| 2026-04-20 21:32 | -17.86008 | -43.46384 | 31993 ft | 401 kts | 217° |
| 2026-04-20 21:33 | -17.90373 | -43.50029 | 32004 ft | 401 kts | 217° |
| 2026-04-20 21:33 | -17.94748 | -43.53688 | 32006 ft | 402 kts | 217° |
| 2026-04-20 21:34 | -17.99109 | -43.57356 | 32009 ft | 402 kts | 217° |
| 2026-04-20 21:34 | -18.03481 | -43.61021 | 32013 ft | 402 kts | 217° |
| 2026-04-20 21:35 | -18.07841 | -43.64685 | 32011 ft | 402 kts | 217° |
| 2026-04-20 21:35 | -18.12215 | -43.68363 | 32008 ft | 402 kts | 217° |
| 2026-04-20 21:36 | -18.16588 | -43.72043 | 32016 ft | 403 kts | 217° |
| 2026-04-20 21:36 | -18.20966 | -43.75726 | 32011 ft | 404 kts | 217° |
| 2026-04-20 21:37 | -18.25345 | -43.79421 | 32016 ft | 403 kts | 217° |
| 2026-04-20 21:37 | -18.29728 | -43.83125 | 32004 ft | 404 kts | 217° |
| 2026-04-20 21:38 | -18.34105 | -43.86817 | 32007 ft | 404 kts | 217° |
| 2026-04-20 21:38 | -18.38507 | -43.90521 | 32007 ft | 404 kts | 217° |
| 2026-04-20 21:39 | -18.42899 | -43.94226 | 32000 ft | 405 kts | 217° |
| 2026-04-20 21:39 | -18.47294 | -43.97943 | 32001 ft | 405 kts | 217° |
| 2026-04-20 21:40 | -18.51683 | -44.01661 | 31993 ft | 405 kts | 217° |
| 2026-04-20 21:40 | -18.56082 | -44.05382 | 31984 ft | 406 kts | 217° |
| 2026-04-20 21:41 | -18.60485 | -44.09102 | 31979 ft | 406 kts | 217° |
| 2026-04-20 21:41 | -18.64891 | -44.12838 | 31980 ft | 406 kts | 217° |
| 2026-04-20 21:42 | -18.69299 | -44.16580 | 31972 ft | 407 kts | 217° |
| 2026-04-20 21:42 | -18.73710 | -44.20318 | 31979 ft | 407 kts | 217° |
| 2026-04-20 21:43 | -18.78127 | -44.24060 | 31969 ft | 407 kts | 217° |
| 2026-04-20 21:43 | -18.82538 | -44.27803 | 31968 ft | 408 kts | 217° |
| 2026-04-20 21:44 | -18.86961 | -44.31576 | 31965 ft | 408 kts | 217° |
| 2026-04-20 21:44 | -18.91379 | -44.35345 | 31969 ft | 408 kts | 217° |
| 2026-04-20 21:45 | -18.95799 | -44.39115 | 31980 ft | 408 kts | 217° |
| 2026-04-20 21:45 | -19.00217 | -44.42887 | 31969 ft | 408 kts | 217° |
| 2026-04-20 21:46 | -19.04636 | -44.46656 | 31972 ft | 408 kts | 217° |
| 2026-04-20 21:46 | -19.09053 | -44.50421 | 31973 ft | 408 kts | 217° |
| 2026-04-20 21:47 | -19.12728 | -44.53560 | 31976 ft | 408 kts | 217° |
| 2026-04-20 21:47 | -19.17150 | -44.57341 | 31982 ft | 408 kts | 217° |
| 2026-04-20 21:48 | -19.21565 | -44.61124 | 31978 ft | 408 kts | 217° |
| 2026-04-20 21:48 | -19.25977 | -44.64890 | 31975 ft | 408 kts | 217° |
| 2026-04-20 21:49 | -19.30399 | -44.68675 | 31975 ft | 408 kts | 217° |
| 2026-04-20 21:49 | -19.34814 | -44.72463 | 31977 ft | 409 kts | 217° |
| 2026-04-20 21:50 | -19.39234 | -44.76256 | 31979 ft | 409 kts | 217° |
| 2026-04-20 21:50 | -19.43653 | -44.80040 | 31982 ft | 409 kts | 217° |
| 2026-04-20 21:51 | -19.47796 | -44.83582 | 31929 ft | 410 kts | 213° |
| 2026-04-20 21:52 | -19.48969 | -44.84622 | 31781 ft | 412 kts | 217° |
| 2026-04-20 21:53 | -19.50974 | -44.86814 | 31598 ft | 411 kts | 221° |
| 2026-04-20 21:53 | -19.52925 | -44.88951 | 31817 ft | 401 kts | 214° |
| 2026-04-20 21:53 | -19.55129 | -44.90744 | 31807 ft | 397 kts | 208° |
| 2026-04-20 21:54 | -19.59729 | -44.93923 | 31798 ft | 391 kts | 208° |
| 2026-04-20 21:54 | -19.64110 | -44.97288 | 31802 ft | 387 kts | 212° |
| 2026-04-20 21:55 | -19.68266 | -45.00882 | 31798 ft | 384 kts | 214° |
| 2026-04-20 21:55 | -19.72351 | -45.04511 | 31799 ft | 381 kts | 214° |
| 2026-04-20 21:56 | -19.76425 | -45.08080 | 31803 ft | 378 kts | 214° |
| 2026-04-20 21:56 | -19.80488 | -45.11605 | 31802 ft | 376 kts | 214° |
| 2026-04-20 21:57 | -19.84541 | -45.15113 | 31801 ft | 375 kts | 214° |
| 2026-04-20 21:57 | -19.88563 | -45.18608 | 31806 ft | 373 kts | 214° |
| 2026-04-20 21:58 | -19.92586 | -45.22101 | 31805 ft | 372 kts | 214° |
| 2026-04-20 21:58 | -19.96570 | -45.25558 | 31808 ft | 372 kts | 215° |
| 2026-04-20 21:59 | -20.00567 | -45.29033 | 31813 ft | 371 kts | 215° |
| 2026-04-20 21:59 | -20.04570 | -45.32518 | 31813 ft | 371 kts | 215° |
| 2026-04-20 22:00 | -20.08561 | -45.35992 | 31814 ft | 371 kts | 215° |
| 2026-04-20 22:00 | -20.12548 | -45.39458 | 31816 ft | 370 kts | 215° |
| 2026-04-20 22:01 | -20.16539 | -45.42940 | 31820 ft | 370 kts | 216° |
| 2026-04-20 22:01 | -20.20520 | -45.46425 | 31816 ft | 370 kts | 216° |
| 2026-04-20 22:02 | -20.24500 | -45.49896 | 31818 ft | 370 kts | 216° |
| 2026-04-20 22:02 | -20.28485 | -45.53370 | 31821 ft | 370 kts | 216° |
| 2026-04-20 22:03 | -20.32456 | -45.56839 | 31818 ft | 371 kts | 216° |
| 2026-04-20 22:03 | -20.36452 | -45.60345 | 31817 ft | 371 kts | 216° |
| 2026-04-20 22:04 | -20.40438 | -45.63834 | 31821 ft | 371 kts | 216° |
| 2026-04-20 22:04 | -20.44421 | -45.67329 | 31820 ft | 371 kts | 216° |
| 2026-04-20 22:05 | -20.48412 | -45.70831 | 31819 ft | 371 kts | 216° |
| 2026-04-20 22:05 | -20.52383 | -45.74301 | 31823 ft | 371 kts | 216° |
| 2026-04-20 22:06 | -20.56382 | -45.77802 | 31825 ft | 372 kts | 216° |
| 2026-04-20 22:06 | -20.60374 | -45.81312 | 31827 ft | 372 kts | 216° |
| 2026-04-20 22:07 | -20.64371 | -45.84829 | 31827 ft | 372 kts | 217° |
| 2026-04-20 22:07 | -20.68365 | -45.88348 | 31829 ft | 373 kts | 217° |
| 2026-04-20 22:08 | -20.72379 | -45.91881 | 31830 ft | 374 kts | 217° |
| 2026-04-20 22:08 | -20.76387 | -45.95413 | 31830 ft | 374 kts | 217° |
| 2026-04-20 22:09 | -20.80375 | -45.98929 | 31828 ft | 374 kts | 217° |
| 2026-04-20 22:09 | -20.84411 | -46.02490 | 31829 ft | 374 kts | 217° |
| 2026-04-20 22:10 | -20.88401 | -46.06002 | 31831 ft | 374 kts | 217° |
| 2026-04-20 22:10 | -20.92425 | -46.09549 | 31831 ft | 374 kts | 217° |
| 2026-04-20 22:11 | -20.96468 | -46.13054 | 31833 ft | 374 kts | 213° |
| 2026-04-20 22:11 | -21.01093 | -46.15489 | 31827 ft | 372 kts | 197° |
| 2026-04-20 22:12 | -21.06019 | -46.17203 | 31838 ft | 372 kts | 197° |
| 2026-04-20 22:12 | -21.10937 | -46.18915 | 31842 ft | 372 kts | 197° |
| 2026-04-20 22:13 | -21.15863 | -46.20650 | 31839 ft | 373 kts | 197° |
| 2026-04-20 22:13 | -21.20796 | -46.22371 | 31840 ft | 373 kts | 196° |
| 2026-04-20 22:14 | -21.25744 | -46.24042 | 31840 ft | 373 kts | 196° |
| 2026-04-20 22:14 | -21.30694 | -46.25713 | 31845 ft | 373 kts | 196° |
| 2026-04-20 22:15 | -21.35643 | -46.27395 | 31844 ft | 373 kts | 197° |
| 2026-04-20 22:15 | -21.40560 | -46.29077 | 31850 ft | 373 kts | 197° |
| 2026-04-20 22:16 | -21.45503 | -46.30767 | 31855 ft | 373 kts | 197° |
| 2026-04-20 22:16 | -21.50465 | -46.32458 | 31860 ft | 373 kts | 197° |
| 2026-04-20 22:17 | -21.55414 | -46.34142 | 31864 ft | 374 kts | 197° |
| 2026-04-20 22:17 | -21.60367 | -46.35833 | 31873 ft | 374 kts | 197° |
| 2026-04-20 22:18 | -21.65326 | -46.37525 | 31870 ft | 374 kts | 197° |
| 2026-04-20 22:18 | -21.70268 | -46.39282 | 31882 ft | 374 kts | 198° |
| 2026-04-20 22:19 | -21.75197 | -46.41122 | 31881 ft | 375 kts | 198° |
| 2026-04-20 22:19 | -21.80129 | -46.42957 | 31888 ft | 375 kts | 198° |
| 2026-04-20 22:20 | -21.85033 | -46.44760 | 31889 ft | 375 kts | 198° |
| 2026-04-20 22:20 | -21.89974 | -46.46571 | 31889 ft | 375 kts | 198° |
| 2026-04-20 22:21 | -21.94918 | -46.48388 | 31887 ft | 376 kts | 198° |
| 2026-04-20 22:21 | -21.99872 | -46.50212 | 31889 ft | 376 kts | 198° |
| 2026-04-20 22:22 | -22.04825 | -46.52035 | 31887 ft | 376 kts | 198° |
| 2026-04-20 22:22 | -22.09772 | -46.53859 | 31886 ft | 376 kts | 198° |
| 2026-04-20 22:23 | -22.14727 | -46.55692 | 31886 ft | 377 kts | 199° |
| 2026-04-20 22:23 | -22.17205 | -46.56617 | 31639 ft | 376 kts | 199° |
| 2026-04-20 22:23 | -22.19662 | -46.57555 | 31300 ft | 372 kts | 201° |
| 2026-04-20 22:23 | -22.22075 | -46.58503 | 30976 ft | 369 kts | 200° |
| 2026-04-20 22:24 | -22.24488 | -46.59422 | 30646 ft | 365 kts | 200° |
| 2026-04-20 22:24 | -22.26873 | -46.60310 | 30284 ft | 363 kts | 200° |
| 2026-04-20 22:24 | -22.29267 | -46.61188 | 29872 ft | 360 kts | 200° |
| 2026-04-20 22:24 | -22.31629 | -46.62053 | 29444 ft | 358 kts | 200° |
| 2026-04-20 22:25 | -22.33974 | -46.62913 | 29026 ft | 355 kts | 200° |
| 2026-04-20 22:25 | -22.36307 | -46.63773 | 28602 ft | 353 kts | 200° |
| 2026-04-20 22:25 | -22.37707 | -46.64292 | 28348 ft | 352 kts | 200° |
| 2026-04-20 22:25 | -22.40007 | -46.65154 | 27941 ft | 349 kts | 200° |
| 2026-04-20 22:26 | -22.42160 | -46.66315 | 27533 ft | 344 kts | 217° |
| 2026-04-20 22:26 | -22.43958 | -46.68005 | 27192 ft | 339 kts | 223° |
| 2026-04-20 22:26 | -22.45653 | -46.69713 | 27118 ft | 326 kts | 223° |
| 2026-04-20 22:27 | -22.48809 | -46.72899 | 27142 ft | 296 kts | 223° |
| 2026-04-20 22:27 | -22.50278 | -46.74389 | 27138 ft | 281 kts | 223° |
| 2026-04-20 22:27 | -22.51661 | -46.75789 | 27140 ft | 265 kts | 223° |
| 2026-04-20 22:27 | -22.52973 | -46.77110 | 27070 ft | 252 kts | 223° |
| 2026-04-20 22:28 | -22.54252 | -46.78383 | 26583 ft | 257 kts | 223° |
| 2026-04-20 22:28 | -22.55570 | -46.79700 | 26184 ft | 256 kts | 222° |
| 2026-04-20 22:28 | -22.56907 | -46.81041 | 26008 ft | 268 kts | 223° |
| 2026-04-20 22:28 | -22.58276 | -46.82422 | 26452 ft | 264 kts | 223° |
| 2026-04-20 22:29 | -22.59560 | -46.83724 | 27380 ft | 243 kts | 224° |
| 2026-04-20 22:29 | -22.60775 | -46.84964 | 27716 ft | 249 kts | 223° |
| 2026-04-20 22:29 | -22.61988 | -46.86202 | 27570 ft | 272 kts | 224° |
| 2026-04-20 22:29 | -22.63504 | -46.87751 | 27971 ft | 270 kts | 224° |
| 2026-04-20 22:30 | -22.64825 | -46.89097 | 28803 ft | 253 kts | 224° |
| 2026-04-20 22:30 | -22.66081 | -46.90378 | 29198 ft | 256 kts | 224° |
| 2026-04-20 22:30 | -22.67422 | -46.91749 | 29120 ft | 275 kts | 224° |
| 2026-04-20 22:30 | -22.68832 | -46.93197 | 29409 ft | 277 kts | 224° |
| 2026-04-20 22:31 | -22.70186 | -46.94602 | 30152 ft | 263 kts | 225° |
| 2026-04-20 22:31 | -22.71477 | -46.95952 | 30533 ft | 262 kts | 224° |
| 2026-04-20 22:31 | -22.72827 | -46.97378 | 30550 ft | 276 kts | 225° |
| 2026-04-20 22:31 | -22.74219 | -46.98862 | 30682 ft | 282 kts | 225° |
| 2026-04-20 22:32 | -22.75585 | -47.00331 | 31226 ft | 271 kts | 225° |
| 2026-04-20 22:32 | -22.76901 | -47.01759 | 31739 ft | 264 kts | 225° |
| 2026-04-20 22:32 | -22.78203 | -47.03186 | 31886 ft | 272 kts | 225° |
| 2026-04-20 22:32 | -22.79552 | -47.04672 | 31940 ft | 282 kts | 225° |
| 2026-04-20 22:33 | -22.80928 | -47.06200 | 32286 ft | 280 kts | 225° |
| 2026-04-20 22:33 | -22.82301 | -47.07737 | 32414 ft | 289 kts | 225° |
| 2026-04-20 22:33 | -22.83690 | -47.09300 | 32813 ft | 286 kts | 225° |
| 2026-04-20 22:33 | -22.85110 | -47.10875 | 32796 ft | 301 kts | 223° |
| 2026-04-20 22:34 | -22.86784 | -47.12280 | 32822 ft | 311 kts | 207° |
| 2026-04-20 22:34 | -22.88115 | -47.12882 | 32701 ft | 317 kts | 195° |
| 2026-04-20 22:34 | -22.90319 | -47.13151 | 32326 ft | 324 kts | 178° |
| 2026-04-20 22:34 | -22.92556 | -47.12643 | 31733 ft | 331 kts | 162° |
| 2026-04-20 22:35 | -22.94660 | -47.11665 | 31531 ft | 328 kts | 155° |
| 2026-04-20 22:35 | -22.96692 | -47.10534 | 31464 ft | 326 kts | 155° |
| 2026-04-20 22:35 | -22.98815 | -47.09650 | 31271 ft | 330 kts | 175° |
| 2026-04-20 22:35 | -23.01058 | -47.09874 | 30851 ft | 323 kts | 204° |
| 2026-04-20 22:36 | -23.02714 | -47.11039 | 30483 ft | 318 kts | 227° |
| 2026-04-20 22:39 | -23.03761 | -47.12260 | 29615 ft | 333 kts | 227° |
| 2026-04-20 22:40 | -23.05644 | -47.13746 | 29019 ft | 337 kts | 204° |
| 2026-04-20 22:40 | -23.07923 | -47.14264 | 28547 ft | 338 kts | 179° |
| 2026-04-20 22:40 | -23.10238 | -47.13817 | 28098 ft | 339 kts | 168° |
| 2026-04-20 22:40 | -23.12541 | -47.13259 | 27628 ft | 339 kts | 170° |
| 2026-04-20 22:41 | -23.14855 | -47.12759 | 27172 ft | 339 kts | 171° |
| 2026-04-20 22:41 | -23.17172 | -47.12279 | 26743 ft | 338 kts | 172° |
| 2026-04-20 22:41 | -23.19482 | -47.11799 | 26311 ft | 337 kts | 171° |
| 2026-04-20 22:41 | -23.21789 | -47.11311 | 25881 ft | 337 kts | 171° |
| 2026-04-20 22:42 | -23.24082 | -47.10816 | 25462 ft | 336 kts | 170° |
| 2026-04-20 22:42 | -23.26373 | -47.10314 | 25055 ft | 335 kts | 169° |
| 2026-04-20 22:42 | -23.28660 | -47.09813 | 24649 ft | 334 kts | 169° |
| 2026-04-20 22:42 | -23.30938 | -47.09316 | 24242 ft | 334 kts | 169° |
| 2026-04-20 22:43 | -23.33212 | -47.08819 | 23854 ft | 333 kts | 169° |
| 2026-04-20 22:43 | -23.35481 | -47.08636 | 23422 ft | 331 kts | 186° |
| 2026-04-20 22:43 | -23.37718 | -47.09298 | 22952 ft | 330 kts | 206° |
| 2026-04-20 22:43 | -23.39572 | -47.10753 | 22491 ft | 331 kts | 226° |
| 2026-04-20 22:44 | -23.40844 | -47.12844 | 22028 ft | 334 kts | 246° |
| 2026-04-20 22:44 | -23.41364 | -47.15305 | 21579 ft | 337 kts | 266° |
| 2026-04-20 22:44 | -23.41051 | -47.17838 | 21136 ft | 341 kts | 287° |
| 2026-04-20 22:44 | -23.39927 | -47.20093 | 20701 ft | 344 kts | 308° |
| 2026-04-20 22:45 | -23.38102 | -47.21790 | 20266 ft | 347 kts | 330° |
| 2026-04-20 22:45 | -23.35843 | -47.22647 | 19840 ft | 347 kts | 353° |
| 2026-04-20 22:45 | -23.33448 | -47.22560 | 19418 ft | 345 kts | 12° |
| 2026-04-20 22:45 | -23.31090 | -47.22034 | 19010 ft | 345 kts | 13° |
| 2026-04-20 22:46 | -23.28747 | -47.21504 | 18600 ft | 345 kts | 13° |
| 2026-04-20 22:46 | -23.26388 | -47.20970 | 18166 ft | 345 kts | 13° |
| 2026-04-20 22:46 | -23.24030 | -47.20441 | 17706 ft | 345 kts | 13° |
| 2026-04-20 22:46 | -23.21681 | -47.19914 | 17249 ft | 346 kts | 13° |
| 2026-04-20 22:47 | -23.19321 | -47.19381 | 16802 ft | 346 kts | 13° |
| 2026-04-20 22:47 | -23.16970 | -47.18849 | 16354 ft | 346 kts | 13° |
| 2026-04-20 22:47 | -23.14614 | -47.18318 | 15926 ft | 346 kts | 13° |
| 2026-04-20 22:47 | -23.12290 | -47.17794 | 15505 ft | 346 kts | 14° |
| 2026-04-20 22:48 | -23.09928 | -47.17252 | 15083 ft | 346 kts | 14° |
| 2026-04-20 22:48 | -23.07573 | -47.16723 | 14670 ft | 346 kts | 13° |
| 2026-04-20 22:48 | -23.05263 | -47.16078 | 14245 ft | 343 kts | 26° |
| 2026-04-20 22:48 | -23.03413 | -47.14555 | 13815 ft | 332 kts | 56° |
| 2026-04-20 22:49 | -23.02758 | -47.13357 | 13564 ft | 326 kts | 72° |
| 2026-04-20 22:49 | -23.02459 | -47.10997 | 13106 ft | 315 kts | 101° |
| 2026-04-20 22:49 | -23.03273 | -47.08771 | 12669 ft | 327 kts | 128° |
| 2026-04-20 22:49 | -23.05018 | -47.07138 | 12236 ft | 344 kts | 153° |
| 2026-04-20 22:50 | -23.07376 | -47.06471 | 11798 ft | 361 kts | 178° |
| 2026-04-20 22:50 | -23.09887 | -47.06969 | 11368 ft | 378 kts | 201° |
| 2026-04-20 22:50 | -23.12103 | -47.08597 | 10947 ft | 395 kts | 223° |
| 2026-04-20 22:50 | -23.13912 | -47.10909 | 10516 ft | 406 kts | 227° |
| 2026-04-20 22:51 | -23.16150 | -47.12753 | 10314 ft | 404 kts | 204° |
| 2026-04-20 22:51 | -23.18817 | -47.13406 | 10259 ft | 400 kts | 181° |
| 2026-04-20 22:51 | -23.21543 | -47.12952 | 10172 ft | 399 kts | 165° |
| 2026-04-20 22:51 | -23.24155 | -47.11927 | 10082 ft | 398 kts | 159° |
| 2026-04-20 22:52 | -23.26784 | -47.10748 | 9987 ft | 397 kts | 158° |
| 2026-04-20 22:52 | -23.29268 | -47.09644 | 9912 ft | 396 kts | 161° |
| 2026-04-20 22:52 | -23.31883 | -47.08771 | 9829 ft | 395 kts | 166° |
| 2026-04-20 22:52 | -23.34572 | -47.08102 | 9736 ft | 394 kts | 169° |
| 2026-04-20 22:53 | -23.37268 | -47.07557 | 9562 ft | 390 kts | 170° |
| 2026-04-20 22:53 | -23.39920 | -47.07053 | 9103 ft | 377 kts | 168° |
| 2026-04-20 22:53 | -23.42213 | -47.06033 | 8656 ft | 344 kts | 145° |
| 2026-04-20 22:53 | -23.43714 | -47.04191 | 8241 ft | 322 kts | 121° |
| 2026-04-20 22:54 | -23.44527 | -47.01999 | 7807 ft | 303 kts | 108° |
| 2026-04-20 22:54 | -23.44976 | -46.99811 | 7381 ft | 290 kts | 103° |
| 2026-04-20 22:54 | -23.45318 | -46.97697 | 6961 ft | 279 kts | 102° |
| 2026-04-20 22:54 | -23.45671 | -46.95655 | 6547 ft | 269 kts | 103° |
| 2026-04-20 22:55 | -23.46061 | -46.93699 | 6184 ft | 258 kts | 105° |
| 2026-04-20 22:55 | -23.46475 | -46.91853 | 5906 ft | 245 kts | 107° |
| 2026-04-20 22:55 | -23.46900 | -46.90099 | 5714 ft | 234 kts | 107° |
| 2026-04-20 22:55 | -23.47314 | -46.88447 | 5689 ft | 217 kts | 108° |
| 2026-04-20 22:56 | -23.47693 | -46.86958 | 5705 ft | 200 kts | 108° |
| 2026-04-20 22:56 | -23.48021 | -46.85690 | 5711 ft | 193 kts | 109° |
| 2026-04-20 22:56 | -23.48384 | -46.84295 | 5708 ft | 191 kts | 107° |
| 2026-04-20 22:56 | -23.48745 | -46.82906 | 5644 ft | 191 kts | 109° |
| 2026-04-20 22:57 | -23.49100 | -46.81540 | 5576 ft | 186 kts | 108° |
| 2026-04-20 22:57 | -23.49439 | -46.80217 | 5451 ft | 179 kts | 108° |
| 2026-04-20 22:57 | -23.49768 | -46.78940 | 5308 ft | 171 kts | 109° |
| 2026-04-20 22:57 | -23.50086 | -46.77720 | 5192 ft | 165 kts | 109° |
| 2026-04-20 22:58 | -23.50392 | -46.76545 | 5065 ft | 158 kts | 109° |
| 2026-04-20 22:58 | -23.50686 | -46.75414 | 4978 ft | 151 kts | 109° |
| 2026-04-20 22:58 | -23.51005 | -46.74343 | 4900 ft | 146 kts | 119° |
| 2026-04-20 22:58 | -23.51555 | -46.73466 | 4904 ft | 142 kts | 135° |
| 2026-04-20 22:59 | -23.52368 | -46.72857 | 4786 ft | 136 kts | 145° |
| 2026-04-20 22:59 | -23.53126 | -46.72290 | 4618 ft | 130 kts | 147° |
| 2026-04-20 22:59 | -23.53876 | -46.71750 | 4463 ft | 127 kts | 146° |
| 2026-04-20 22:59 | -23.54618 | -46.71223 | 4304 ft | 127 kts | 147° |
| 2026-04-20 23:00 | -23.55357 | -46.70708 | 4139 ft | 128 kts | 147° |
| 2026-04-20 23:00 | -23.56104 | -46.70189 | 4001 ft | 127 kts | 147° |
| 2026-04-20 23:00 | -23.56840 | -46.69680 | 3845 ft | 126 kts | 147° |
| 2026-04-20 23:00 | -23.57581 | -46.69166 | 3682 ft | 126 kts | 147° |
| 2026-04-20 23:01 | -23.58317 | -46.68658 | 3522 ft | 125 kts | 147° |
| 2026-04-20 23:01 | -23.59050 | -46.68150 | 3345 ft | 125 kts | 147° |
| 2026-04-20 23:01 | -23.59784 | -46.67643 | 3177 ft | 125 kts | 148° |
| 2026-04-20 23:01 | -23.60516 | -46.67137 | 3011 ft | 125 kts | 148° |
| 2026-04-20 23:02 | -23.61248 | -46.66630 | 2842 ft | 124 kts | 148° |
| 2026-04-20 23:02 | -23.61978 | -46.66125 | 2680 ft | 124 kts | 147° |
| 2026-04-20 23:02 | -23.62631 | -46.65667 | 2617 ft | 82 kts | 147° |
| 2026-04-20 23:02 | -23.62862 | -46.65502 | 2627 ft | 8 kts | 147° |
| 2026-04-20 23:03 | -23.62870 | -46.65496 | 2627 ft | 1 kts | 147° |
| 2026-04-20 23:03 | -23.62883 | -46.65476 | 2628 ft | 5 kts | 93° |
| 2026-04-20 23:03 | -23.62874 | -46.65443 | 2629 ft | 4 kts | 60° |
| 2026-04-20 23:03 | -23.62870 | -46.65435 | 2629 ft | 1 kts | 60° |
| 2026-04-20 23:04 | -23.62867 | -46.65430 | 2629 ft | 0 kts | 60° |
| 2026-04-20 23:04 | -23.62866 | -46.65428 | 2629 ft | 1 kts | 60° |
| 2026-04-20 23:04 | -23.62862 | -46.65420 | 2629 ft | 2 kts | 59° |
| 2026-04-20 23:04 | -23.62852 | -46.65402 | 2629 ft | 4 kts | 59° |
| 2026-04-20 23:05 | -23.62835 | -46.65370 | 2628 ft | 6 kts | 59° |
| 2026-04-20 23:05 | -23.62826 | -46.65354 | 2628 ft | 0 kts | 59° |